createdAt,value
2019-06-26T00:00:19.369Z,50.74
2019-06-26T00:02:51.649Z,51.01
2019-06-26T00:05:24.230Z,51.02
2019-06-26T00:07:56.699Z,50.50
2019-06-26T00:10:29.677Z,51.04
2019-06-26T00:13:02.273Z,51.30
2019-06-26T00:15:35.941Z,51.58
2019-06-26T00:18:08.226Z,52.42
2019-06-26T00:20:40.815Z,52.84
2019-06-26T00:23:14.107Z,52.84
2019-06-26T00:25:46.590Z,53.04
2019-06-26T00:28:19.273Z,52.95
2019-06-26T00:30:51.559Z,53.57
2019-06-26T00:33:24.115Z,54.34
2019-06-26T00:35:56.647Z,55.13
2019-06-26T00:38:29.267Z,55.56
2019-06-26T00:41:02.046Z,55.86
2019-06-26T00:43:42.277Z,55.74
2019-06-26T00:46:07.719Z,55.93
2019-06-26T00:48:39.883Z,55.94
2019-06-26T00:51:12.382Z,56.56
2019-06-26T00:53:44.784Z,57.41
2019-06-26T00:56:17.315Z,57.28
2019-06-26T00:58:50.323Z,56.49
2019-06-26T01:01:22.733Z,55.58
2019-06-26T01:03:56.845Z,55.55
2019-06-26T01:06:31.207Z,56.16
2019-06-26T01:09:04.090Z,55.41
2019-06-26T01:11:36.673Z,55.82
2019-06-26T01:14:09.552Z,56.03
2019-06-26T01:16:42.028Z,55.59
2019-06-26T01:19:14.845Z,53.79
2019-06-26T01:21:47.441Z,53.59
2019-06-26T01:24:20.062Z,53.22
2019-06-26T01:26:52.848Z,53.38
2019-06-26T01:29:25.581Z,52.88
2019-06-26T01:31:58.510Z,53.32
2019-06-26T01:34:31.188Z,54.10
2019-06-26T01:37:03.727Z,54.95
2019-06-26T01:39:36.288Z,55.61
2019-06-26T01:42:08.924Z,56.39
2019-06-26T01:44:41.444Z,56.96
2019-06-26T01:47:14.073Z,57.09
2019-06-26T01:49:46.655Z,56.82
2019-06-26T01:52:19.667Z,56.84
2019-06-26T01:54:52.223Z,56.64
2019-06-26T01:57:24.816Z,57.17
2019-06-26T01:59:57.476Z,57.05
2019-06-26T02:02:30.219Z,57.49
2019-06-26T02:05:03.207Z,57.95
2019-06-26T02:07:36.080Z,58.95
2019-06-26T02:10:09.412Z,59.10
2019-06-26T02:12:42.122Z,59.15
2019-06-26T02:15:15.395Z,59.72
2019-06-26T02:17:47.617Z,59.95
2019-06-26T02:20:20.244Z,60.13
2019-06-26T02:22:52.988Z,59.95
2019-06-26T02:25:25.630Z,60.25
2019-06-26T02:27:58.280Z,60.64
2019-06-26T02:30:30.862Z,60.03
2019-06-26T02:33:03.764Z,59.63
2019-06-26T02:35:36.330Z,59.32
2019-06-26T02:38:08.939Z,59.76
2019-06-26T02:40:41.584Z,59.45
2019-06-26T02:43:14.678Z,59.45
2019-06-26T02:45:49.780Z,59.89
2019-06-26T02:48:22.488Z,60.27
2019-06-26T02:50:55.084Z,60.08
2019-06-26T02:53:27.751Z,59.05
2019-06-26T02:56:00.426Z,59.53
2019-06-26T02:58:34.130Z,60.52
2019-06-26T03:01:06.718Z,61.00
2019-06-26T03:03:39.383Z,61.30
2019-06-26T03:06:11.731Z,61.66
2019-06-26T03:08:44.448Z,61.18
2019-06-26T03:11:16.952Z,61.48
2019-06-26T03:13:49.614Z,61.50
2019-06-26T03:16:22.478Z,61.58
2019-06-26T03:18:55.176Z,61.32
2019-06-26T03:21:27.493Z,61.39
2019-06-26T03:24:00.299Z,61.15
2019-06-26T03:26:33.091Z,60.15
2019-06-26T03:29:05.881Z,58.99
2019-06-26T03:31:40.459Z,59.21
2019-06-26T03:34:12.769Z,58.77
2019-06-26T03:36:45.385Z,58.86
2019-06-26T03:39:18.283Z,57.86
2019-06-26T03:41:50.908Z,57.46
2019-06-26T03:44:23.388Z,56.44
2019-06-26T03:46:55.859Z,56.88
2019-06-26T03:49:28.342Z,57.67
2019-06-26T03:52:01.074Z,57.26
2019-06-26T03:54:33.606Z,55.81
2019-06-26T03:57:06.275Z,55.81
2019-06-26T03:59:38.721Z,53.55
2019-06-26T04:02:11.474Z,53.82
2019-06-26T04:04:44.211Z,53.73
2019-06-26T04:07:16.988Z,53.37
2019-06-26T04:09:49.469Z,52.17
2019-06-26T04:12:22.131Z,52.32
2019-06-26T04:14:54.546Z,51.61
2019-06-26T04:17:27.195Z,52.02
2019-06-26T04:19:59.681Z,52.57
2019-06-26T04:22:32.326Z,52.57
2019-06-26T04:25:07.703Z,51.63
2019-06-26T04:27:40.603Z,51.43
2019-06-26T04:30:13.990Z,52.03
2019-06-26T04:32:46.659Z,51.53
2019-06-26T04:35:19.597Z,50.93
2019-06-26T04:37:54.080Z,51.31
2019-06-26T04:40:29.940Z,50.92
2019-06-26T04:43:09.611Z,49.72
2019-06-26T04:45:57.554Z,50.18
2019-06-26T04:48:26.223Z,50.80
2019-06-26T04:50:58.993Z,51.19
2019-06-26T04:53:32.091Z,49.60
2019-06-26T04:56:05.886Z,49.75
2019-06-26T04:58:38.655Z,49.28
2019-06-26T05:01:11.279Z,49.58
2019-06-26T05:03:43.694Z,49.63
2019-06-26T05:06:16.599Z,50.23
2019-06-26T05:08:49.276Z,49.12
2019-06-26T05:11:21.758Z,48.36
2019-06-26T05:13:54.118Z,49.46
2019-06-26T05:16:26.799Z,48.76
2019-06-26T05:18:59.583Z,49.04
2019-06-26T05:21:32.257Z,49.46
2019-06-26T05:24:05.149Z,48.84
2019-06-26T05:26:37.377Z,49.17
2019-06-26T05:29:10.103Z,48.91
2019-06-26T05:31:42.824Z,48.96
2019-06-26T05:34:15.409Z,49.41
2019-06-26T05:36:48.584Z,49.62
2019-06-26T05:39:20.849Z,49.82
2019-06-26T05:41:54.662Z,49.29
2019-06-26T05:44:27.203Z,47.82
2019-06-26T05:47:00.535Z,48.25
2019-06-26T05:49:33.377Z,47.84
2019-06-26T05:52:05.763Z,47.78
2019-06-26T05:54:38.033Z,46.74
2019-06-26T05:57:10.715Z,47.15
2019-06-26T05:59:43.368Z,48.53
2019-06-26T06:02:16.992Z,48.20
2019-06-26T06:04:49.667Z,48.45
2019-06-26T06:07:24.289Z,47.89
2019-06-26T06:09:56.521Z,46.83
2019-06-26T06:12:29.148Z,46.57
2019-06-26T06:15:02.325Z,47.76
2019-06-26T06:17:34.599Z,46.49
2019-06-26T06:20:08.721Z,47.34
2019-06-26T06:22:41.416Z,47.52
2019-06-26T06:25:14.786Z,47.47
2019-06-26T06:27:47.162Z,46.19
2019-06-26T06:30:19.938Z,45.70
2019-06-26T06:32:52.462Z,46.36
2019-06-26T06:35:25.201Z,46.32
2019-06-26T06:37:57.673Z,45.45
2019-06-26T06:40:30.021Z,44.83
2019-06-26T06:43:02.958Z,44.01
2019-06-26T06:45:35.108Z,44.34
2019-06-26T06:48:07.782Z,44.02
2019-06-26T06:50:40.480Z,43.65
2019-06-26T06:53:12.837Z,44.33
2019-06-26T06:55:45.036Z,42.54
2019-06-26T06:58:17.370Z,41.93
2019-06-26T07:00:53.043Z,41.46
2019-06-26T07:03:25.641Z,43.10
2019-06-26T07:05:58.283Z,41.20
2019-06-26T07:08:31.026Z,40.41
2019-06-26T07:11:03.754Z,40.91
2019-06-26T07:13:36.522Z,41.03
2019-06-26T07:16:09.204Z,38.84
2019-06-26T07:18:41.775Z,38.79
2019-06-26T07:21:14.236Z,40.15
2019-06-26T07:23:47.884Z,40.54
2019-06-26T07:26:20.531Z,40.46
2019-06-26T07:28:52.912Z,39.45
2019-06-26T07:31:25.624Z,37.58
2019-06-26T07:33:58.224Z,36.28
2019-06-26T07:36:30.946Z,36.00
2019-06-26T07:39:03.530Z,35.41
2019-06-26T07:41:37.025Z,35.77
2019-06-26T07:44:09.396Z,36.60
2019-06-26T07:46:42.104Z,35.51
2019-06-26T07:49:14.766Z,36.51
2019-06-26T07:51:47.431Z,35.54
2019-06-26T07:54:20.024Z,36.46
2019-06-26T07:56:52.736Z,35.09
2019-06-26T07:59:25.271Z,34.80
2019-06-26T08:01:58.055Z,36.03
2019-06-26T08:04:30.630Z,35.26
2019-06-26T08:07:03.217Z,35.78
2019-06-26T08:09:35.514Z,34.52
2019-06-26T08:12:08.383Z,36.02
2019-06-26T08:14:40.945Z,33.48
2019-06-26T08:17:13.913Z,34.96
2019-06-26T08:19:46.122Z,34.35
2019-06-26T08:22:18.773Z,33.95
2019-06-26T08:24:52.373Z,34.88
2019-06-26T08:27:25.054Z,35.35
2019-06-26T08:29:57.452Z,35.71
2019-06-26T08:32:30.805Z,34.59
2019-06-26T08:35:03.939Z,33.82
2019-06-26T08:37:36.181Z,34.42
2019-06-26T08:40:10.203Z,33.90
2019-06-26T08:42:42.473Z,34.49
2019-06-26T08:45:15.044Z,33.88
2019-06-26T08:47:47.513Z,33.22
2019-06-26T08:50:20.054Z,33.17
2019-06-26T08:52:52.672Z,34.25
2019-06-26T08:55:25.457Z,31.63
2019-06-26T08:57:57.672Z,33.55
2019-06-26T09:00:31.333Z,33.17
2019-06-26T09:03:04.421Z,33.95
2019-06-26T09:05:47.358Z,32.51
2019-06-26T09:08:11.227Z,33.62
2019-06-26T09:10:44.967Z,32.50
2019-06-26T09:13:17.876Z,32.13
2019-06-26T09:15:50.546Z,33.13
2019-06-26T09:18:34.777Z,33.32
2019-06-26T09:20:57.171Z,32.38
2019-06-26T09:23:31.154Z,31.37
2019-06-26T09:26:03.764Z,32.44
2019-06-26T09:28:36.407Z,33.35
2019-06-26T09:31:09.218Z,32.94
2019-06-26T09:33:41.721Z,33.09
2019-06-26T09:36:14.374Z,32.11
2019-06-26T09:38:46.960Z,30.23
2019-06-26T09:41:19.667Z,30.40
2019-06-26T09:43:52.314Z,30.72
2019-06-26T09:46:24.860Z,30.78
2019-06-26T09:48:57.508Z,31.27
2019-06-26T09:51:30.380Z,31.18
2019-06-26T09:54:03.184Z,31.92
2019-06-26T09:56:35.735Z,32.13
2019-06-26T09:59:08.384Z,30.56
2019-06-26T10:01:41.078Z,30.94
2019-06-26T10:04:13.705Z,31.30
2019-06-26T10:06:46.257Z,32.17
2019-06-26T10:09:19.047Z,31.29
2019-06-26T10:11:51.595Z,30.27
2019-06-26T10:14:24.369Z,31.83
2019-06-26T10:16:57.353Z,30.27
2019-06-26T10:19:29.715Z,30.55
2019-06-26T10:22:02.402Z,29.43
2019-06-26T10:24:34.878Z,29.81
2019-06-26T10:27:07.430Z,29.81
2019-06-26T10:29:40.147Z,31.03
2019-06-26T10:32:15.280Z,31.97
2019-06-26T10:34:47.895Z,31.17
2019-06-26T10:37:20.414Z,31.15
2019-06-26T10:39:53.107Z,30.42
2019-06-26T10:42:25.837Z,31.63
2019-06-26T10:44:58.570Z,30.29
2019-06-26T10:47:31.533Z,30.85
2019-06-26T10:50:06.092Z,31.24
2019-06-26T10:52:38.434Z,32.00
2019-06-26T10:55:11.543Z,30.92
2019-06-26T10:57:44.218Z,30.81
2019-06-26T11:00:18.150Z,30.43
2019-06-26T11:02:50.548Z,30.66
2019-06-26T11:05:23.808Z,30.97
2019-06-26T11:07:56.133Z,30.53
2019-06-26T11:10:28.849Z,31.54
2019-06-26T11:13:01.422Z,29.97
2019-06-26T11:15:34.106Z,30.27
2019-06-26T11:18:06.783Z,30.02
2019-06-26T11:20:39.362Z,30.02
2019-06-26T11:23:11.876Z,29.97
2019-06-26T11:25:44.791Z,31.28
2019-06-26T11:28:17.164Z,30.32
2019-06-26T11:30:49.776Z,31.14
2019-06-26T11:33:22.407Z,30.24
2019-06-26T11:35:55.134Z,30.71
2019-06-26T11:38:27.709Z,29.85
2019-06-26T11:41:01.953Z,30.61
2019-06-26T11:43:34.009Z,31.25
2019-06-26T11:46:06.671Z,29.99
2019-06-26T11:48:39.358Z,30.26
2019-06-26T11:51:11.827Z,29.44
2019-06-26T11:53:44.303Z,30.55
2019-06-26T11:56:16.992Z,29.23
2019-06-26T11:58:49.560Z,29.46
2019-06-26T12:01:21.971Z,29.63
2019-06-26T12:03:54.614Z,29.17
2019-06-26T12:06:45.977Z,28.38
2019-06-26T12:09:33.556Z,29.67
2019-06-26T12:12:06.240Z,28.18
2019-06-26T12:14:38.816Z,28.80
2019-06-26T12:17:11.192Z,29.07
2019-06-26T12:19:43.866Z,28.96
2019-06-26T12:22:16.660Z,28.19
2019-06-26T12:24:49.162Z,28.82
2019-06-26T12:27:37.881Z,29.15
2019-06-26T12:30:13.151Z,28.57
2019-06-26T12:33:01.621Z,27.42
2019-06-26T12:35:36.398Z,27.60
2019-06-26T12:38:25.161Z,28.26
2019-06-26T12:41:14.015Z,28.34
2019-06-26T12:44:02.878Z,27.60
2019-06-26T12:46:35.249Z,27.64
2019-06-26T12:49:07.961Z,28.55
2019-06-26T12:51:41.018Z,27.92
2019-06-26T12:54:29.561Z,29.37
2019-06-26T12:57:02.354Z,27.90
2019-06-26T12:59:34.929Z,28.47
2019-06-26T13:02:23.688Z,28.61
2019-06-26T13:05:02.909Z,29.02
2019-06-26T13:07:35.293Z,30.36
2019-06-26T13:10:09.937Z,30.18
2019-06-26T13:12:45.746Z,28.72
2019-06-26T13:15:17.514Z,28.84
2019-06-26T13:17:50.213Z,29.14
2019-06-26T13:20:22.925Z,28.20
2019-06-26T13:22:55.463Z,27.93
2019-06-26T13:25:27.954Z,27.26
2019-06-26T13:28:00.656Z,27.53
2019-06-26T13:30:40.020Z,26.39
2019-06-26T13:33:12.258Z,26.42
2019-06-26T13:35:44.814Z,26.81
2019-06-26T13:38:17.385Z,26.83
2019-06-26T13:40:49.672Z,26.59
2019-06-26T13:43:22.341Z,27.07
2019-06-26T13:45:58.608Z,26.61
2019-06-26T13:48:29.210Z,28.01
2019-06-26T13:51:09.248Z,27.88
2019-06-26T13:53:36.038Z,26.77
2019-06-26T13:56:08.696Z,26.41
2019-06-26T13:58:41.477Z,25.59
2019-06-26T14:01:14.056Z,25.20
2019-06-26T14:03:46.781Z,25.46
2019-06-26T14:06:19.124Z,25.61
2019-06-26T14:08:51.894Z,25.38
2019-06-26T14:11:24.363Z,24.81
2019-06-26T14:13:56.851Z,24.40
2019-06-26T14:16:30.023Z,25.25
2019-06-26T14:19:02.661Z,24.93
2019-06-26T14:21:35.192Z,23.09
2019-06-26T14:24:07.651Z,23.78
2019-06-26T14:26:40.207Z,26.01
2019-06-26T14:29:20.901Z,23.87
2019-06-26T14:31:47.137Z,24.47
2019-06-26T14:34:36.923Z,23.30
2019-06-26T14:37:09.392Z,23.63
2019-06-26T14:39:41.780Z,24.97
2019-06-26T14:42:14.263Z,24.51
2019-06-26T14:44:47.024Z,24.68
2019-06-26T14:47:19.816Z,24.54
2019-06-26T14:49:51.869Z,23.23
2019-06-26T14:52:24.205Z,22.89
2019-06-26T14:54:56.917Z,22.64
2019-06-26T14:57:30.196Z,22.95
2019-06-26T15:00:02.905Z,22.70
2019-06-26T15:02:35.984Z,23.43
2019-06-26T15:05:09.044Z,23.46
2019-06-26T15:07:41.667Z,23.17
2019-06-26T15:10:15.951Z,23.52
2019-06-26T15:12:48.546Z,21.15
2019-06-26T15:15:21.219Z,22.29
2019-06-26T15:18:11.612Z,23.00
2019-06-26T15:20:43.958Z,20.91
2019-06-26T15:23:15.858Z,21.50
2019-06-26T15:25:49.044Z,22.07
2019-06-26T15:28:21.723Z,21.21
2019-06-26T15:30:53.681Z,20.09
2019-06-26T15:33:25.960Z,23.53
2019-06-26T15:35:58.464Z,21.63
2019-06-26T15:38:30.337Z,19.90
2019-06-26T15:41:02.279Z,20.39
2019-06-26T15:43:34.745Z,21.17
2019-06-26T15:46:07.460Z,24.13
2019-06-26T15:48:40.300Z,22.59
2019-06-26T15:51:12.676Z,23.70
2019-06-26T15:53:45.245Z,24.39
2019-06-26T15:56:17.188Z,22.23
2019-06-26T15:58:49.586Z,23.34
2019-06-26T16:01:22.062Z,23.07
2019-06-26T16:03:54.430Z,23.22
2019-06-26T16:06:26.906Z,22.83
2019-06-26T16:08:59.384Z,22.58
2019-06-26T16:11:32.073Z,21.92
2019-06-26T16:14:04.125Z,23.71
2019-06-26T16:16:37.728Z,22.88
2019-06-26T16:19:20.854Z,22.46
2019-06-26T16:21:53.151Z,23.26
2019-06-26T16:24:25.906Z,24.15
2019-06-26T16:26:58.693Z,24.89
2019-06-26T16:29:31.369Z,25.49
2019-06-26T16:32:03.945Z,24.99
2019-06-26T16:34:36.669Z,24.93
2019-06-26T16:37:08.585Z,25.79
2019-06-26T16:39:40.976Z,24.48
2019-06-26T16:42:12.898Z,26.84
2019-06-26T16:44:45.401Z,28.63
2019-06-26T16:47:17.649Z,28.10
2019-06-26T16:49:50.246Z,28.57
2019-06-26T16:52:22.973Z,29.62
2019-06-26T16:54:55.732Z,29.95
2019-06-26T16:57:28.285Z,31.21
2019-06-26T17:00:09.629Z,31.72
2019-06-26T17:02:35.652Z,32.56
2019-06-26T17:05:08.166Z,32.59
2019-06-26T17:07:40.425Z,33.81
2019-06-26T17:10:14.634Z,35.02
2019-06-26T17:12:47.233Z,35.82
2019-06-26T17:15:19.498Z,36.44
2019-06-26T17:17:52.416Z,36.21
2019-06-26T17:20:24.962Z,36.87
2019-06-26T17:23:05.508Z,37.61
2019-06-26T17:25:31.148Z,37.86
2019-06-26T17:28:03.621Z,37.86
2019-06-26T17:30:36.106Z,38.12
2019-06-26T17:33:08.875Z,38.28
2019-06-26T17:35:41.659Z,38.32
2019-06-26T17:38:14.364Z,38.52
2019-06-26T17:40:47.119Z,38.79
2019-06-26T17:43:19.697Z,39.31
2019-06-26T17:45:52.274Z,39.53
2019-06-26T17:48:25.109Z,39.94
2019-06-26T17:50:59.345Z,40.34
2019-06-26T17:53:32.186Z,41.09
2019-06-26T17:56:06.166Z,42.18
2019-06-26T17:58:38.748Z,43.18
2019-06-26T18:01:11.747Z,43.95
2019-06-26T18:03:44.522Z,44.42
2019-06-26T18:06:17.040Z,44.94
2019-06-26T18:08:49.772Z,45.35
2019-06-26T18:11:22.963Z,45.71
2019-06-26T18:13:55.440Z,46.05
2019-06-26T18:16:28.118Z,46.26
2019-06-26T18:19:01.519Z,46.68
2019-06-26T18:21:36.240Z,47.23
2019-06-26T18:24:11.471Z,48.07
2019-06-26T18:26:44.988Z,49.04
2019-06-26T18:29:17.769Z,49.84
2019-06-26T18:31:51.471Z,50.42
2019-06-26T18:34:24.204Z,51.01
2019-06-26T18:36:56.525Z,52.03
2019-06-26T18:39:29.375Z,52.48
2019-06-26T18:42:01.888Z,52.82
2019-06-26T18:44:34.361Z,53.53
2019-06-26T18:47:06.826Z,54.13
2019-06-26T18:49:39.618Z,54.11
2019-06-26T18:52:12.191Z,54.99
2019-06-26T18:54:44.683Z,55.15
2019-06-26T18:57:16.935Z,55.38
2019-06-26T18:59:49.826Z,55.76
2019-06-26T19:02:22.501Z,55.97
2019-06-26T19:04:55.070Z,57.09
2019-06-26T19:07:27.630Z,57.57
2019-06-26T19:10:00.240Z,57.80
2019-06-26T19:12:32.911Z,58.43
2019-06-26T19:15:06.915Z,58.90
2019-06-26T19:17:42.282Z,59.12
2019-06-26T19:20:13.468Z,59.18
2019-06-26T19:22:47.581Z,59.42
2019-06-26T19:25:18.893Z,59.23
2019-06-26T19:27:51.214Z,59.89
2019-06-26T19:30:24.068Z,60.68
2019-06-26T19:32:56.709Z,60.91
2019-06-26T19:35:29.487Z,62.21
2019-06-26T19:38:02.044Z,63.24
2019-06-26T19:40:34.845Z,63.46
2019-06-26T19:43:10.877Z,63.20
2019-06-26T19:45:41.432Z,63.44
2019-06-26T19:48:14.119Z,63.19
2019-06-26T19:50:46.490Z,63.29
2019-06-26T19:53:19.113Z,63.71
2019-06-26T19:55:51.660Z,64.70
2019-06-26T19:58:24.422Z,64.96
2019-06-26T20:00:56.799Z,65.73
2019-06-26T20:03:29.523Z,65.92
2019-06-26T20:06:02.199Z,65.31
2019-06-26T20:08:51.452Z,64.51
2019-06-26T20:11:13.581Z,63.85
2019-06-26T20:13:46.251Z,63.96
2019-06-26T20:16:18.629Z,65.65
2019-06-26T20:18:51.397Z,67.84
2019-06-26T20:21:23.663Z,68.56
2019-06-26T20:23:56.240Z,67.83
2019-06-26T20:26:28.510Z,66.28
2019-06-26T20:29:00.797Z,66.38
2019-06-26T20:31:33.403Z,67.44
2019-06-26T20:34:06.139Z,67.03
2019-06-26T20:36:38.613Z,66.39
2019-06-26T20:39:11.248Z,66.52
2019-06-26T20:41:43.976Z,67.17
2019-06-26T20:44:16.660Z,68.77
2019-06-26T20:46:49.335Z,68.04
2019-06-26T20:49:21.858Z,67.39
2019-06-26T20:51:54.491Z,67.36
2019-06-26T20:54:27.268Z,67.58
2019-06-26T20:56:59.946Z,67.72
2019-06-26T20:59:32.672Z,67.92
2019-06-26T21:02:05.484Z,68.28
2019-06-26T21:04:38.148Z,68.58
2019-06-26T21:07:10.793Z,68.54
2019-06-26T21:09:43.422Z,68.67
2019-06-26T21:12:15.972Z,69.28
2019-06-26T21:14:48.606Z,69.82
2019-06-26T21:17:21.185Z,70.25
2019-06-26T21:19:53.759Z,70.18
2019-06-26T21:22:26.219Z,70.26
2019-06-26T21:24:58.801Z,70.50
2019-06-26T21:27:32.440Z,70.79
2019-06-26T21:30:09.418Z,71.19
2019-06-26T21:32:43.029Z,71.38
2019-06-26T21:35:15.605Z,71.71
2019-06-26T21:37:48.351Z,72.00
2019-06-26T21:40:20.930Z,72.35
2019-06-26T21:42:53.508Z,72.35
2019-06-26T21:45:26.084Z,72.49
2019-06-26T21:47:58.466Z,72.64
2019-06-26T21:50:31.254Z,73.01
2019-06-26T21:53:03.981Z,72.81
2019-06-26T21:55:37.312Z,73.33
2019-06-26T21:58:27.713Z,74.01
2019-06-26T22:01:18.762Z,73.77
2019-06-26T22:04:09.737Z,72.88
2019-06-26T22:06:55.723Z,72.97
2019-06-26T22:09:32.547Z,73.55
2019-06-26T22:12:05.427Z,73.62
2019-06-26T22:14:37.757Z,74.06
2019-06-26T23:42:51.076Z,78.16
2019-06-26T23:45:23.297Z,78.84
2019-06-26T23:47:55.975Z,79.62
2019-06-26T23:50:28.753Z,80.01
2019-06-26T23:53:01.066Z,80.28
2019-06-26T23:55:33.555Z,80.20
2019-06-26T23:58:06.052Z,80.32
